Airfield :
LOGIN :

Register | Disclaimer

   EN    FR    IT 

 










Legend :    VFR   Marginal VFR   IFR   Intensive IFR   Very Intensive IFR
Visi :
Ceiling :
>= 8 km
>= 3000ft
5 to 8 km
1000 to 3000 ft
1500m to 5 km
500 to 1000 ft
800 to 1500m
200 to 500 ft
< 800m
< 200 ft
Symbols :   Thunderstorms  Fog  Heavy snow  Heavy precipitations  Wind > 20 kt
SIGMETs :     Misc.  Thunderstorms  Icing  Turbulence  Mountain Waves  Volcanic Ashes






- Airport Elevation : 594 ft


EDBC - Cochstedt

CURRENT METAR :
  • 170320Z AUTO 20004KT 9999 // FEW079/// BKN120/// 14/10 Q1012

EXPIRED METARs :
  • 170250Z AUTO 20005KT 9999 // SCT100/// BKN130/// 13/10 Q1012
  • 170220Z AUTO 21007KT 9999 // SCT110/// 14/10 Q1012
  • 170150Z AUTO 22007KT 9999 // SCT100/// BKN140/// 14/10 Q1012
  • 170120Z AUTO 21004KT 9999 // FEW110/// BKN140/// 14/09 Q1012
  • 170050Z AUTO 19005KT 9999 // SCT110/// BKN130/// 15/10 Q1012
  • 170020Z AUTO 18005KT 9999 // OVC140/// 14/10 Q1012
  • 162350Z AUTO 21007KT 9999 // OVC150/// 15/09 Q1011
  • 162320Z AUTO 18007KT 9999 // OVC160/// 13/10 Q1011
  • 162250Z AUTO 20007KT 9999 // BKN160/// 14/09 Q1011

Expired Forecast.



MET'MAP, your aeronautical weather chart ! - Copyright ORBIFLY December 2007 - Disclaimer

ORBIFLY MET'MAP TEAM :

Programming & Development : Alexandra Zaïnal
Original concept : Baudouin d'Aumeries
Technical & hardware support : Manuel Goepfert
Assistance : Marc-Olivier Méhu




SOURCES & CREDITS :

   NOAA